• Join FlightAware (Why Join?)
  • Login
  • US Flag 
07:53AM EDT


 

Airport Tracker/Info


-or-


 

Live Flight TrackerFlight Track Log ✈ FLG3735 ✈ 16-Jun-2013 ✈ KDTW - KALB

Flight Track Log - Related Links

Times and Time Zones

All times are in EDT time to prevent confusion due to time zone crossing. See the FLG3735 flight status page for this flight to view local times or setup timezone preferences in your user account.

Time Position Orientation Groundspeed Altitude Reporting Facility
EDT Latitude Longitude Course Direction KTS MPH feet Rate Location/Type
10:28PM 42.2017 -83.3553 161° South 167 192 1,000  Level Cleveland Center
10:30PM 42.1006 -83.3089 161° South 220 253 5,000 1,920 Climbing Cleveland Center
10:31PM 42.1108 -83.2311 80° East 186 214 6,700 1,680 Climbing Cleveland Center
10:32PM 42.1467 -83.1233 66° East 231 266 8,400 1,920 Climbing Cleveland Center
10:33PM 42.1822 -83.0183 65° Northeast 270 311 10,600 1,620 Climbing Cleveland Center
10:34PM 42.2222 -82.8964 66° East 316 364 11,700 1,320 Climbing Cleveland Center
10:35PM 42.2644 -82.7689 66° East 346 398 13,300 1,560 Climbing Cleveland Center
10:36PM 42.2981 -82.6325 72° East 369 425 14,900 1,320 Climbing Cleveland Center
10:37PM 42.3111 -82.4842 83° East 385 443 16,000 1,080 Climbing Cleveland Center
10:38PM 42.3239 -82.3300 84° East 403 464 17,100 1,080 Climbing Cleveland Center
10:39PM 42.3367 -82.1758 84° East 413 475 18,200 1,140 Climbing Cleveland Center
10:40PM 42.3556 -82.0106 81° East 431 496 19,400 1,080 Climbing Cleveland Center
10:41PM 42.3658 -81.8450 85° East 443 510 20,400 900 Climbing Cleveland Center
10:42PM 42.3800 -81.6767 83° East 448 516 21,300 900 Climbing Cleveland Center
10:43PM 42.3917 -81.5250 84° East 448 516 22,200 840 Climbing Cleveland Center
10:44PM 42.4056 -81.3508 84° East 461 531 23,000 780 Climbing Cleveland Center
10:45PM 42.4211 -81.1767 83° East 466 536 23,800 780 Climbing Cleveland Center
10:46PM 42.4344 -80.9939 84° East 466 536 24,600 600 Climbing Cleveland Center
10:47PM 42.4475 -80.8167 84° East 473 544 25,000 180 Climbing Cleveland Center
10:48PM 42.4622 -80.6086 84° East 483 556 25,000  Level Cleveland Center
10:49PM 42.4767 -80.4228 84° East 506 582 25,000  Level Cleveland Center
10:50PM 42.4908 -80.2283 84° East 506 582 25,000  Level Cleveland Center
10:51PM 42.5028 -80.0425 85° East 501 577 25,000  Level Cleveland Center
10:52PM 42.5164 -79.8650 84° East 501 577 25,000  Level Cleveland Center
10:53PM 42.5297 -79.6758 84° East 501 577 25,000  Level Cleveland Center
10:54PM 42.5406 -79.4814 86° East 506 582 25,000  Level Cleveland Center
10:55PM 42.5550 -79.2811 84° East 517 595 25,000  Level Cleveland Center
10:56PM 42.5650 -79.0833 86° East 522 601 25,000  Level Cleveland Center
10:57PM 42.5750 -78.8858 86° East 522 601 25,000  Level Cleveland Center
10:58PM 42.5864 -78.6853 86° East 522 601 25,000  Level Cleveland Center
10:59PM 42.5975 -78.4847 86° East 527 606 25,000  Level Cleveland Center
11:00PM 42.6061 -78.2869 87° East 527 606 25,000  Level Cleveland Center
11:01PM 42.6167 -78.0861 86° East 527 606 25,000 -840 Level Cleveland Center
11:02PM 42.6269 -77.8994 86° East 519 597 23,400 -1,020 Descending Cleveland Center
11:03PM 42.6350 -77.7158 87° East 477 549 23,000 -120 Descending Cleveland Center
11:06PM 42.6528 -77.3022 87° East 454 522 23,000  Level Boston Center
11:07PM 42.6603 -77.1250 87° East 460 529 23,000  Level Boston Center
11:08PM 42.6675 -76.9447 87° East 465 535 23,000  Level Boston Center
11:09PM 42.6744 -76.7642 87° East 470 541 23,000  Level Boston Center
11:10PM 42.6814 -76.5839 87° East 476 548 23,000  Level Boston Center
11:11PM 42.6878 -76.4036 87° East 476 548 23,000  Level Boston Center
11:12PM 42.6939 -76.2231 87° East 476 548 23,000 -60 Level Boston Center
11:13PM 42.6978 -76.0367 88° East 476 548 22,900  Descending Boston Center
11:14PM 42.7056 -75.8564 87° East 476 548 23,000  Climbing Boston Center
11:15PM 42.7108 -75.6728 88° East 476 548 23,000  Level Boston Center
11:16PM 42.7158 -75.4894 88° East 481 554 23,000 -960 Level Boston Center
11:17PM 42.7206 -75.3114 88° East 476 548 21,100 -2,160 Descending Boston Center
11:18PM 42.7228 -75.1364 89° East 469 540 18,700 -2,400 Descending Boston Center
11:19PM 42.7286 -74.9697 87° East 455 524 16,400 -2,340 Descending Boston Center
11:19PM 42.7294 -74.8397 89° East 428 493 14,600 -2,160 Descending Boston Center
11:20PM 42.7350 -74.7694 84° East 419 482 13,700 -1,980 Descending Boston Center
11:21PM 42.7333 -74.6506 91° East 420 483 12,200 -1,620 Descending Boston Center
11:22PM 42.7047 -74.5056 105° East 405 466 11,000 -720 Descending Boston Center
11:23PM 42.6758 -74.3689 106° East 381 438 10,800 -960 Descending Boston Center
11:24PM 42.6508 -74.2467 106° East 350 403 9,100 -1,860 Descending Boston Center
11:25PM 42.6194 -74.1075 107° East 301 346 6,700 -1,860 Descending Boston Center
11:26PM 42.6183 -74.0428 91° East 294 338 5,400 -1,920 Descending Boston Center
11:26PM 42.6189 -74.0061 89° East 282 325 4,800 -1,800 Descending Boston Center
11:27PM 42.6197 -73.9356 89° East 284 327 3,600 -1,500 Descending Boston Center
11:27PM 42.6203 -73.9017 89° East 256 295 3,300 -1,200 Descending Boston Center